Tiempo atmosférico en la estación meteorológica de Aliseda, Cáceres (321 m.)



Fecha
DESCASC
Temp. máxima en grados centígrados (hora)
DESCASC
Temp. mínima en grados centígrados (hora)
DESCASC
Temp. media en grados centígrados
DESCASC
Racha de viento máxima en m/sg (hora)
DESCASC
Velocidad máxima media en intervalos de 10 minutos(hora)
DESCASC
Precipitaciones diarias en mm
DESCASC
Precipitaciones de 00:00 a 06:00 en mm
DESCASC
Precipitaciones de 06:00 a 12:00 en mm
DESCASC
Precipitaciones de 12:00 a 18:00 en mm
DESCASC
Precipitaciones de 18:00 a 24:00 en mm
DESCASC
28-02-2021 18.7 (16:40) 2 (07:10) 10.4 5.83 (17:00) 3.61 (17:00) 0 0 0 0 0
27-02-2021 18.1 (18:00) 5.5 (06:50) 11.8 5.28 (14:20) 3.33 (14:40) 0 0 0 0 0
26-02-2021 15.9 (14:40) 8.2 (05:40) 12 6.94 (11:50) 3.89 (11:30) 0 0 0 0 0
25-02-2021 16.7 (16:20) 9 (00:00) 12.9 10 (02:40) 5.83 (02:40) 0 0 0 0 0
24-02-2021 18.3 (16:20) 3.5 (00:00) 10.9 10 (13:00) 5 (13:00) 0 0 0 0 0
23-02-2021 16.2 (15:50) 2.3 (00:00) 9.3 9.44 (13:50) 5 (13:30) 0 0 0 0 0
22-02-2021 14.7 (16:30) 1.8 (00:00) 8.2 7.5 (00:10) 4.72 (00:10) 0 0 0 0 0
21-02-2021 14.5 (00:00) 6.8 (00:00) 10.7 25 (04:30) 9.44 (05:10) 3.6 1.6 2 0 0
20-02-2021 15.6 (17:00) 9.5 (00:00) 12.6 13.89 (20:30) 6.67 (23:59) 0 0 0 0 0
19-02-2021 15.5 (17:10) 8.5 (00:00) 12 13.06 (11:40) 7.22 (11:00) 0 0 0 0 0
18-02-2021 17 (16:10) 6.7 (00:00) 11.8 7.78 (15:30) 4.17 (14:40) 0 0 0 0 0
17-02-2021 18.8 (15:50) 5.4 (00:00) 12.1 10 (22:40) 5.56 (22:40) 0 0 0 0 0
16-02-2021 17.4 (16:40) 4.7 (00:00) 11 9.72 (00:10) 5.28 (00:10) 0 0 0 0 0
15-02-2021 18.4 (16:30) 4.7 (00:00) 11.5 10.56 (22:00) 6.11 (23:59) 0 0 0 0 0
14-02-2021 19.7 (16:50) 3 (00:00) 11.4 7.22 (14:40) 3.89 (14:00) 0 0 0 0 0
13-02-2021 17.7 (16:20) 3.9 (00:00) 10.8 4.44 (00:40) 2.78 (00:10) 0 0 0 0 0
12-02-2021 16.4 (16:00) 9.6 (00:00) 13 9.72 (04:00) 5.83 (00:30) 2.6 2.6 0 0 0
11-02-2021 -- (--) -- (--) -- -- (--) -- (--) -- -- -- -- 0.6
10-02-2021 -- (--) -- (--) -- -- (--) -- (--) -- -- -- -- --
09-02-2021 -- (--) -- (--) -- -- (--) -- (--) -- -- -- -- --
08-02-2021 -- (--) -- (--) -- -- (--) -- (--) -- -- -- -- --
07-02-2021 -- (--) -- (--) -- -- (--) -- (--) -- -- -- -- --
06-02-2021 -- (--) -- (--) -- -- (--) -- (--) -- 0.2 -- -- --
05-02-2021 11.3 (09:20) 8.7 (00:00) 10 11.67 (09:30) 5 (09:20) -- -- -- 8.6 3.4
04-02-2021 11.7 (00:00) 9.2 (00:00) 10.4 7.22 (17:10) 4.44 (17:00) 9.4 1 8.4 0 0
03-02-2021 13.2 (16:20) 10.5 (00:00) 11.8 12.22 (00:50) 8.61 (01:00) 6 0 2 3.6 0.4

Gráficas

Temp. máximas Temp. mínimas Temp. medias Precipitaciones Rachas de viento máximas Velocidades máximas media en intervalos de 10 minutos

Datos horarios

Fecha y hora oficial Temperatura (ºC) Velocidad del viento (km/h) Dirección del viento Racha (km/h) Dirección de racha Precipitación (mm) Presión (hPa) Tendencia (hPa) Humedad (%)
2021-03-04 23:00:00 13.8 13 Sudeste 25 Sudeste 0 -- -- 63
2021-03-04 22:00:00 13.3 13 Sudeste 23 Sudeste 0 -- -- 73
2021-03-04 21:00:00 13.2 12 Sudeste 16 Sudeste 0 -- -- 74
2021-03-04 20:00:00 13.4 6 Sudeste 15 Sudeste 0 -- -- 73
2021-03-04 19:00:00 14.4 7 Este 16 Este 0 -- -- 69
2021-03-04 18:00:00 14.7 9 Este 20 Este 0 -- -- 68
2021-03-04 17:00:00 15.2 14 Este 24 Este 0 -- -- 66
2021-03-04 16:00:00 15.6 10 Este 23 Este 0 -- -- 67
2021-03-04 15:00:00 15.2 12 Este 24 Este 0 -- -- 67
2021-03-04 14:00:00 15 13 Sudeste 22 Este 0 -- -- 66
2021-03-04 13:00:00 14.7 9 Sudeste 30 Sur 0 -- -- 66
2021-03-04 12:00:00 14.6 5 Este 24 Este 0 -- -- 67
2021-03-04 11:00:00 12.3 13 Este 21 Este 0 -- -- 83
2021-03-04 10:00:00 9.3 4 Noroeste 10 Este 0 -- -- 96
2021-03-04 09:00:00 7.5 6 Este 9 Este 0 -- -- 96
2021-03-04 08:00:00 7.4 3 Nordeste 7 Este 0 -- -- 95
2021-03-04 07:00:00 7.3 3 Este 5 Este 0 -- -- 97
2021-03-04 06:00:00 7.5 3 Oeste 6 Este 0 -- -- 94
2021-03-04 05:00:00 7.9 2 Sudeste 6 Sur 0 -- -- 93
2021-03-04 04:00:00 9.1 3 Norte 11 Este 0 -- -- 90
2021-03-04 03:00:00 9 4 Este 9 Este 0 -- -- 93
2021-03-04 02:00:00 8.9 2 Este 6 Este 0 -- -- 93
2021-03-04 01:00:00 9.2 0 Calma 5 Este 0 -- -- 91
2021-03-04 00:00:00 10.9 0 Calma 15 Este 0 -- -- 85
2021-03-03 23:00:00 12 7 Este 15 Este 0 -- -- 84
2021-03-03 22:00:00 13.2 10 Este 17 Este 0 -- -- 79
2021-03-03 21:00:00 13.8 8 Este 11 Este 0 -- -- 78
2021-03-03 20:00:00 14.7 7 Sudeste 11 Sudeste 0 -- -- 77
2021-03-03 19:00:00 16.6 7 Sudeste 10 Este 0 -- -- 70
2021-03-03 18:00:00 18.5 5 Nordeste 16 Este 0 -- -- 62
2021-03-03 17:00:00 18.7 8 Este 16 Este 0 -- -- 58
2021-03-03 16:00:00 19 8 Este 19 Este 0 -- -- 57
2021-03-03 15:00:00 18.6 7 Nordeste 19 Este 0 -- -- 63
2021-03-03 14:00:00 17.9 8 Nordeste 18 Este 0 -- -- 66
2021-03-03 13:00:00 16.9 7 Nordeste 22 Este 0 -- -- 66
2021-03-03 12:00:00 15.2 10 Este 17 Este 0 -- -- 71
2021-03-03 11:00:00 12.9 10 Este 22 Este 0 -- -- 79
2021-03-03 10:00:00 11.1 4 Nordeste 9 Nordeste 0 -- -- 86
2021-03-03 09:00:00 6.8 0 Calma 6 Este 0 -- -- 93
2021-03-03 08:00:00 7.5 2 Noroeste 19 Este 0 -- -- 87
2021-03-03 07:00:00 9.8 11 Este 21 Este 0 -- -- 85
2021-03-03 06:00:00 8.7 8 Este 15 Este 0 -- -- 89
2021-03-03 05:00:00 6.7 2 Este 10 Este 0 -- -- 90
2021-03-03 04:00:00 8.1 7 Este 10 Este 0 -- -- 90
2021-03-03 03:00:00 7.9 4 Este 8 Este 0 -- -- 92
2021-03-03 02:00:00 7.7 0 Calma 4 Oeste 0 -- -- 90
2021-03-03 01:00:00 10.6 3 Norte 12 Este 0 -- -- 82
2021-03-03 00:00:00 10.9 4 Este 10 Sudeste 0 -- -- 81
2021-03-02 23:00:00 10.9 5 Sudeste 8 Sudeste 0 -- -- 83
2021-03-02 22:00:00 12.2 5 Este 12 Sudeste 0 -- -- 81
2021-03-02 21:00:00 12.5 7 Sudeste 12 Sudeste 0 -- -- 80
2021-03-02 20:00:00 12.7 6 Sudeste 9 Este 0 -- -- 83
2021-03-02 19:00:00 15.4 3 Este 10 Este 0 -- -- 77
2021-03-02 18:00:00 16.1 4 Nordeste 14 Sudeste 0 -- -- 71
2021-03-02 17:00:00 16.1 6 Este 15 Este 0 -- -- 70
2021-03-02 16:00:00 16.2 8 Este 16 Este 0 -- -- 70
2021-03-02 15:00:00 16.3 6 Nordeste 15 Este 0 -- -- 69
2021-03-02 14:00:00 15.5 5 Nordeste 14 Nordeste 0 -- -- 73
2021-03-02 13:00:00 15.1 6 Nordeste 11 Este 0 -- -- 73
2021-03-02 12:00:00 13.1 6 Nordeste 15 Este 0 -- -- 77
2021-03-02 11:00:00 10.9 5 Nordeste 11 Este 0 -- -- 86
2021-03-02 10:00:00 9.8 0 Calma 6 Este 0 -- -- 92
2021-03-02 09:00:00 9 6 Este 15 Este 0 -- -- 92
2021-03-02 08:00:00 8.6 7 Este 12 Este 0 -- -- 93
2021-03-02 07:00:00 7.4 4 Este 7 Este 0 -- -- 97
2021-03-02 06:00:00 6.6 0 Calma 6 Sudeste 0 -- -- 96
2021-03-02 05:00:00 6.4 0 Calma 5 Noroeste 0 -- -- 96
2021-03-02 04:00:00 6.6 0 Calma 5 Noroeste 0 -- -- 95
2021-03-02 03:00:00 7.1 2 Este 6 Este 0 -- -- 95
2021-03-02 02:00:00 6.8 3 Sudeste 5 Este 0 -- -- 95
2021-03-02 01:00:00 7.1 3 Sudoeste 5 Sur 0 -- -- 92
2021-03-02 00:00:00 8.5 0 Calma 12 Este 0 -- -- 87
2021-03-01 23:00:00 10.6 6 Este 13 Este 0 -- -- 85
2021-03-01 22:00:00 11.2 9 Este 14 Este 0 -- -- 83
2021-03-01 21:00:00 11.8 10 Este 17 Sudeste 0 -- -- 81
2021-03-01 20:00:00 12.8 8 Sudeste 14 Sudeste 0 -- -- 75
2021-03-01 19:00:00 13.8 8 Sudeste 15 Este 0 -- -- 71
2021-03-01 18:00:00 15.1 8 Este 18 Este 0 -- -- 67
2021-03-01 17:00:00 15.5 9 Este 23 Este 0 -- -- 65
2021-03-01 16:00:00 15.5 13 Este 24 Este 0 -- -- 66
2021-03-01 15:00:00 15.2 11 Este 23 Este 0 -- -- 67
2021-03-01 14:00:00 15.1 8 Este 18 Este 0 -- -- 67
2021-03-01 13:00:00 15.1 9 Este 20 Este 0 -- -- 67
2021-03-01 12:00:00 13.8 10 Este 22 Este 0 -- -- 69
2021-03-01 11:00:00 11.4 15 Este 25 Este 0 -- -- 76
2021-03-01 10:00:00 10.2 12 Este 21 Este 0 -- -- 81
2021-03-01 09:00:00 8.9 10 Este 20 Este 0 -- -- 88
2021-03-01 08:00:00 8.1 10 Este 16 Este 0 -- -- 93
2021-03-01 07:00:00 8.6 10 Este 18 Este 0 -- -- 91
2021-03-01 06:00:00 9.1 10 Este 18 Este 0.8 -- -- 92
2021-03-01 05:00:00 9 6 Este 13 Este 0 -- -- 91
2021-03-01 04:00:00 9 5 Este 13 Este 0 -- -- 91
2021-03-01 03:00:00 10.5 9 Sudeste 15 Sudeste 0 -- -- 85
2021-03-01 02:00:00 8.7 0 Calma 3 Sur 0 -- -- 93
2021-03-01 01:00:00 7.8 0 Calma 4 Oeste 0 -- -- 94
2021-03-01 00:00:00 7.6 0 Calma 4 Noroeste 0 -- -- 91
2021-02-28 23:00:00 9.1 2 Este 8 Este 0 -- -- 88
2021-02-28 22:00:00 9.6 0 Calma 9 Este 0 -- -- 85
2021-02-28 21:00:00 12.6 2 Nordeste 18 Sudeste 0 -- -- 74
2021-02-28 20:00:00 13.2 12 Sudeste 15 Sudeste 0 -- -- 73
2021-02-28 19:00:00 15 7 Sudeste 19 Este 0 -- -- 67
2021-02-28 18:00:00 16.9 12 Este 20 Nordeste 0 -- -- 60
2021-02-28 17:00:00 17.7 13 Este 21 Este 0 -- -- 57
2021-02-28 16:00:00 18 8 Nordeste 21 Sudoeste 0 -- -- 54
2021-02-28 15:00:00 18.1 10 Sur 21 Sur 0 -- -- 55
2021-02-28 14:00:00 17.4 8 Sur 21 Sur 0 -- -- 55
2021-02-28 13:00:00 15.8 5 Norte 10 Norte 0 -- -- 66
2021-02-28 12:00:00 13.2 6 Nordeste 13 Nordeste 0 -- -- 76
2021-02-28 11:00:00 10.3 6 Este 11 Este 0 -- -- 74
2021-02-28 10:00:00 7.2 0 Calma 4 Sudeste 0 -- -- 91
2021-02-28 09:00:00 3.1 0 Calma 5 Noroeste 0 -- -- 96
2021-02-28 08:00:00 3.4 4 Sur 8 Sur 0 -- -- 98
2021-02-28 07:00:00 2.1 0 Calma 4 Sur 0 -- -- 95
2021-02-28 06:00:00 2.8 0 Calma 9 Sur 0 -- -- 93
2021-02-28 05:00:00 3.2 3 Este 5 Sur 0 -- -- 95
2021-02-28 04:00:00 4 0 Calma 4 Noroeste 0 -- -- 94
2021-02-28 03:00:00 4.4 0 Calma 10 Norte 0 -- -- 93
2021-02-28 02:00:00 5.7 4 Sur 9 Sur 0 -- -- 90
2021-02-28 01:00:00 6.3 2 Oeste 5 Sur 0 -- -- 90
2021-02-28 00:00:00 7.2 0 Calma 7 Sur 0 -- -- 86
2021-02-27 23:00:00 7.7 2 Sur 5 Sur 0 -- -- 86
2021-02-27 22:00:00 9.1 3 Sudeste 8 Sur 0 -- -- 80
2021-02-27 21:00:00 9.9 4 Sur 7 Sudeste 0 -- -- 77
2021-02-27 20:00:00 11.4 5 Sudeste 8 Sudeste 0 -- -- 71
2021-02-27 19:00:00 13.9 2 Sudeste 7 Nordeste 0 -- -- 68
2021-02-27 18:00:00 18.1 0 Calma 8 Nordeste 0 -- -- 56
2021-02-27 17:00:00 17.5 5 Este 10 Este 0 -- -- 54
2021-02-27 16:00:00 17.4 6 Nordeste 17 Este 0 -- -- 55
2021-02-27 15:00:00 17 8 Nordeste 19 Este 0 -- -- 56
2021-02-27 14:00:00 17 8 Nordeste 18 Este 0 -- -- 51
2021-02-27 13:00:00 15.6 7 Nordeste 14 Nordeste 0 -- -- 62
2021-02-27 12:00:00 13.6 8 Este 14 Este 0 -- -- 71
2021-02-27 11:00:00 12 4 Nordeste 12 Este 0 -- -- 80
2021-02-27 10:00:00 9.3 3 Oeste 6 Oeste 0 -- -- 89
2021-02-27 09:00:00 6.1 0 Calma 4 Este 0 -- -- 95
2021-02-27 08:00:00 6.3 5 Sudeste 8 Sudeste 0 -- -- 96
2021-02-27 07:00:00 5.6 2 Sudeste 4 Sudeste 0 -- -- 96
2021-02-27 06:00:00 6.8 3 Sudoeste 9 Sudoeste 0 -- -- 92
2021-02-27 05:00:00 7.3 5 Sudoeste 10 Sudoeste 0 -- -- 95
2021-02-27 04:00:00 7.5 2 Sudoeste 6 Sur 0 -- -- 93
2021-02-27 03:00:00 7.8 0 Calma 3 Sur 0 -- -- 94
2021-02-27 02:00:00 7.8 0 Calma 3 Sur 0 -- -- 92
2021-02-27 01:00:00 8.7 0 Calma 4 Sudeste 0 -- -- 90
2021-02-27 00:00:00 8.7 2 Sudeste 3 Sur 0 -- -- 92
2021-02-26 23:00:00 9 0 Calma 7 Sudoeste 0 -- -- 90
2021-02-26 22:00:00 9.6 0 Calma 5 Sudoeste 0 -- -- 89
2021-02-26 21:00:00 10.2 2 Sur 5 Sur 0 -- -- 89
2021-02-26 20:00:00 10.7 0 Calma 3 Sur 0 -- -- 87
2021-02-26 19:00:00 13.2 0 Calma 3 Este 0 -- -- 81
2021-02-26 18:00:00 14.7 2 Este 12 Nordeste 0 -- -- 72
2021-02-26 17:00:00 15.3 4 Nordeste 13 Nordeste 0 -- -- 69
2021-02-26 16:00:00 15.2 5 Nordeste 15 Nordeste 0 -- -- 71
2021-02-26 15:00:00 15.5 8 Este 20 Este 0 -- -- 69
2021-02-26 14:00:00 15.1 10 Este 18 Sudeste 0 -- -- 71
2021-02-26 13:00:00 13.6 11 Este 21 Este 0 -- -- 75
2021-02-26 12:00:00 12.4 12 Este 25 Este 0 -- -- 80
2021-02-26 11:00:00 11.6 12 Este 19 Este 0 -- -- 83
2021-02-26 10:00:00 10.9 8 Este 18 Este 0 -- -- 85
2021-02-26 09:00:00 10.4 10 Este 14 Este 0 -- -- 85
2021-02-26 08:00:00 9.4 8 Este 12 Este 0 -- -- 89
2021-02-26 07:00:00 8.6 0 Calma 8 Este 0 -- -- 91
2021-02-26 06:00:00 9.3 4 Este 8 Este 0 -- -- 88
2021-02-26 05:00:00 9.2 0 Calma 14 Este 0 -- -- 87
2021-02-26 04:00:00 10 6 Este 13 Este 0 -- -- 85
2021-02-26 03:00:00 10.2 6 Este 9 Este 0 -- -- 85
2021-02-26 02:00:00 9.7 0 Calma 5 Sudeste 0 -- -- 88
2021-02-26 01:00:00 10.2 4 Sudeste 5 Este 0 -- -- 88
2021-02-26 00:00:00 10.4 0 Calma 4 Noroeste 0 -- -- 85
2021-02-25 23:00:00 11 3 Este 14 Este 0 -- -- 80
2021-02-25 22:00:00 11.3 8 Este 13 Este 0 -- -- 80
2021-02-25 21:00:00 12 7 Este 14 Este 0 -- -- 79
2021-02-25 20:00:00 12.9 9 Este 23 Este 0 -- -- 78
2021-02-25 19:00:00 13.5 13 Este 22 Este 0 -- -- 72
2021-02-25 18:00:00 14.7 12 Este 23 Este 0 -- -- 71
2021-02-25 17:00:00 15.8 14 Este 25 Este 0 -- -- 65
2021-02-25 16:00:00 16.2 5 Este 14 Sudeste 0 -- -- 63
2021-02-25 15:00:00 15.6 6 Este 17 Este 0 -- -- 66
2021-02-25 14:00:00 15.5 6 Este 19 Este 0 -- -- 67
2021-02-25 13:00:00 14.3 5 Este 18 Este 0 -- -- 71
2021-02-25 12:00:00 13.6 6 Este 18 Este 0 -- -- 72
2021-02-25 11:00:00 12.7 6 Este 14 Este 0 -- -- 77
2021-02-25 10:00:00 10.8 4 Este 10 Nordeste 0 -- -- 84
2021-02-25 09:00:00 9.1 0 Calma 6 Nordeste 0 -- -- 86
2021-02-25 08:00:00 10.3 2 Noroeste 19 Este 0 -- -- 80
2021-02-25 07:00:00 11.2 4 Sudeste 21 Sudeste 0 -- -- 77
2021-02-25 06:00:00 11.3 13 Sudeste 20 Este 0 -- -- 76
2021-02-25 05:00:00 10.9 4 Sudeste 14 Nordeste 0 -- -- 79
2021-02-25 04:00:00 11.7 4 Este 27 Sudeste 0 -- -- 73
2021-02-25 03:00:00 12 20 Sudeste 36 Sudeste 0 -- -- 71
2021-02-25 02:00:00 12.6 16 Sudeste 34 Sudeste 0 -- -- 71
2021-02-25 01:00:00 13.3 14 Sudeste 33 Sur 0 -- -- 69
2021-02-25 00:00:00 14 12 Sur 28 Sudeste 0 -- -- 67
2021-02-24 23:00:00 14.6 7 Sudeste 23 Sudeste 0 -- -- 65
2021-02-24 22:00:00 15.2 9 Sudeste 26 Este 0 -- -- 64
2021-02-24 21:00:00 15.3 7 Sudeste 26 Sudeste 0 -- -- 64
2021-02-24 20:00:00 15.7 9 Sudeste 27 Sudeste 0 -- -- 63
2021-02-24 19:00:00 16.6 14 Este 23 Este 0 -- -- 59
2021-02-24 18:00:00 17.4 10 Este 19 Sudeste 0 -- -- 55
2021-02-24 17:00:00 17.9 13 Este 30 Este 0 -- -- 55
2021-02-24 16:00:00 18 8 Este 27 Sudeste 0 -- -- 54
2021-02-24 15:00:00 17.2 13 Sudeste 26 Sudeste 0 -- -- 56
2021-02-24 14:00:00 17 12 Sudeste 35 Este 0 -- -- 55
2021-02-24 13:00:00 16.4 18 Este 36 Este 0 -- -- 55
2021-02-24 12:00:00 14.8 10 Este 23 Este 0 -- -- 64
2021-02-24 11:00:00 12.7 7 Nordeste 18 Este 0 -- -- 71
2021-02-24 10:00:00 11 5 Nordeste 24 Este 0 -- -- 75
2021-02-24 09:00:00 8 6 Este 22 Sudeste 0 -- -- 80
2021-02-24 08:00:00 9.6 13 Sudeste 25 Este 0 -- -- 71
2021-02-24 07:00:00 4.2 2 Este 23 Sudeste 0 -- -- 91
2021-02-24 06:00:00 5.5 7 Sudeste 23 Este 0 -- -- 86
2021-02-24 05:00:00 3.6 2 Oeste 8 Oeste 0 -- -- 90
2021-02-24 04:00:00 4.8 0 Calma 15 Sudeste 0 -- -- 86
2021-02-24 03:00:00 6.4 8 Este 15 Este 0 -- -- 79
2021-02-24 02:00:00 5.7 2 Noroeste 10 Este 0 -- -- 83
2021-02-24 01:00:00 12.5 6 Sudeste 26 Este 0 -- -- 58
2021-02-24 00:00:00 12.2 13 Sudeste 19 Sudeste 0 -- -- 59
2021-02-23 23:00:00 10.4 9 Este 23 Sudeste 0 -- -- 67
2021-02-23 22:00:00 13.1 15 Sudeste 21 Sudeste 0 -- -- 56
2021-02-23 21:00:00 13.2 13 Sudeste 22 Sudeste 0 -- -- 56
2021-02-23 20:00:00 13.2 15 Sudeste 23 Sudeste 0 -- -- 57
2021-02-23 19:00:00 13.5 10 Sudeste 19 Este 0 -- -- 56
2021-02-23 18:00:00 15.4 12 Este 26 Este 0 -- -- 52
2021-02-23 17:00:00 15.9 15 Este 27 Este 0 -- -- 49
2021-02-23 16:00:00 16.1 15 Este 28 Este 0 -- -- 47
2021-02-23 15:00:00 15.7 15 Este 28 Este 0 -- -- 49
2021-02-23 14:00:00 15.1 17 Este 34 Este 0 -- -- 52
2021-02-23 13:00:00 14.5 17 Este 27 Este 0 -- -- 50
2021-02-23 12:00:00 14.1 10 Este 23 Este 0 -- -- 63
2021-02-23 11:00:00 12 8 Este 14 Este 0 -- -- 71
2021-02-23 10:00:00 7.3 4 Noroeste 5 Noroeste 0 -- -- 92
2021-02-23 09:00:00 3.6 0 Calma 3 Norte 0 -- -- 96
2021-02-23 08:00:00 2.4 0 Calma 6 Oeste 0 -- -- 95
2021-02-23 07:00:00 2.6 0 Calma 5 Noroeste 0 -- -- 94
2021-02-23 06:00:00 3 0 Calma 3 Noroeste 0 -- -- 94
2021-02-23 05:00:00 3.7 0 Calma 7 Nordeste 0 -- -- 92
2021-02-23 04:00:00 5 0 Calma 8 Sur 0 -- -- 89
2021-02-23 03:00:00 6.4 3 Noroeste 26 Sudeste 0 -- -- 79
2021-02-23 02:00:00 4.5 6 Sudeste 15 Sur 0 -- -- 97
2021-02-23 01:00:00 4.3 0 Calma 3 Este 0 -- -- 91
2021-02-23 00:00:00 4.9 0 Calma 4 Noroeste 0 -- -- 90
2021-02-22 23:00:00 5.9 0 Calma 3 Noroeste 0 -- -- 87
2021-02-22 22:00:00 7.4 0 Calma 8 Sur 0 -- -- 80
2021-02-22 21:00:00 8.2 6 Sur 10 Sudoeste 0 -- -- 76
2021-02-22 20:00:00 8.4 9 Sur 11 Sur 0 -- -- 75
2021-02-22 19:00:00 10.4 6 Sudoeste 13 Oeste 0 -- -- 69
2021-02-22 18:00:00 13.3 2 Oeste 7 Noroeste 0 -- -- 65
2021-02-22 17:00:00 13.4 0 Calma 14 Oeste 0 -- -- 63
2021-02-22 16:00:00 13.7 4 Oeste 18 Oeste 0 -- -- 58
2021-02-22 15:00:00 13.1 10 Oeste 19 Oeste 0 -- -- 59
2021-02-22 14:00:00 13.5 10 Sudoeste 20 Oeste 0 -- -- 64
2021-02-22 13:00:00 12.5 6 Noroeste 19 Noroeste 0 -- -- 64
2021-02-22 12:00:00 11.3 5 Oeste 12 Oeste 0 -- -- 68
2021-02-22 11:00:00 9.3 2 Norte 6 Nordeste 0 -- -- 81
2021-02-22 10:00:00 5.8 3 Norte 10 Oeste 0 -- -- 89
2021-02-22 09:00:00 2.6 0 Calma 4 Oeste 0 -- -- 95
2021-02-22 08:00:00 2.6 0 Calma 4 Oeste 0 -- -- 92
2021-02-22 07:00:00 3.5 0 Calma 13 Oeste 0 -- -- 89
2021-02-22 06:00:00 5.4 9 Sudoeste 17 Oeste 0 -- -- 88
2021-02-22 05:00:00 5.4 10 Oeste 18 Sudoeste 0 -- -- 89
2021-02-22 04:00:00 5.4 8 Sudoeste 18 Oeste 0 -- -- 89
2021-02-22 03:00:00 5.9 11 Sudoeste 19 Sudoeste 0 -- -- 87
2021-02-22 02:00:00 6.3 12 Sudoeste 22 Sudoeste 0 -- -- 85
2021-02-22 01:00:00 6.4 12 Oeste 27 Oeste 0 -- -- 82
2021-02-22 00:00:00 6.8 15 Oeste 25 Oeste 0 -- -- 80
2021-02-21 23:00:00 7.2 14 Oeste 24 Oeste 0 -- -- 80
2021-02-21 22:00:00 7.9 13 Oeste 23 Oeste 0 -- -- 77
2021-02-21 21:00:00 8.4 13 Oeste 28 Noroeste 0 -- -- 76
2021-02-21 20:00:00 9.9 17 Oeste 32 Oeste 0 -- -- 66
2021-02-21 19:00:00 11.1 13 Oeste 28 Oeste 0 -- -- 66
2021-02-21 18:00:00 11.6 12 Oeste 27 Noroeste 0 -- -- 63
2021-02-21 17:00:00 11.5 12 Noroeste 27 Noroeste 0 -- -- 66
2021-02-21 16:00:00 11.2 17 Noroeste 30 Noroeste 0 -- -- 67
2021-02-21 15:00:00 10.2 13 Noroeste 28 Noroeste 0 -- -- 73
2021-02-21 14:00:00 9.6 15 Noroeste 26 Oeste 0 -- -- 79
2021-02-21 13:00:00 9.7 5 Oeste 13 Nordeste 0 -- -- 82
2021-02-21 12:00:00 8.6 6 Nordeste 15 Noroeste 0 -- -- 87
2021-02-21 11:00:00 7.6 8 Oeste 17 Oeste 0 -- -- 93
2021-02-21 10:00:00 7.3 5 Sudoeste 20 Oeste 0.4 -- -- 91
2021-02-21 09:00:00 7.6 5 Oeste 20 Oeste 0.8 -- -- 94
2021-02-21 08:00:00 8.3 12 Oeste 28 Oeste 0.8 -- -- 90
2021-02-21 07:00:00 9.7 11 Sudoeste 31 Sur 0 -- -- 89
2021-02-21 06:00:00 10.7 18 Sur 73 Sudoeste 1 -- -- 87
2021-02-21 05:00:00 13.9 32 Sudoeste 90 Sur 0.2 -- -- 65
2021-02-21 04:00:00 12.5 15 Este 60 Sur 0.4 -- -- 64
2021-02-21 03:00:00 14.2 26 Este 52 Este 0 -- -- 53
2021-02-21 02:00:00 14.1 22 Este 49 Este 0 -- -- 59
2021-02-21 01:00:00 14.2 21 Este 46 Este 0 -- -- 59
2021-02-21 00:00:00 14.5 24 Este 42 Este 0 -- -- 57
2021-02-20 23:00:00 14.9 13 Este 34 Este 0 -- -- 52
2021-02-20 22:00:00 15.1 15 Este 40 Este 0 -- -- 49
2021-02-20 21:00:00 15.3 21 Este 50 Este 0 -- -- 51
2021-02-20 20:00:00 15.1 19 Este 42 Sudeste 0 -- -- 53
2021-02-20 19:00:00 14.8 16 Este 33 Este 0 -- -- 57
2021-02-20 18:00:00 15.2 13 Este 33 Este 0 -- -- 55
2021-02-20 17:00:00 15.6 10 Nordeste 30 Sudoeste 0 -- -- 51
2021-02-20 16:00:00 15.5 6 Este 29 Sudeste 0 -- -- 60
2021-02-20 15:00:00 15.3 8 Nordeste 40 Oeste 0 -- -- 62
2021-02-20 14:00:00 15 11 Este 44 Este 0 -- -- 66
2021-02-20 13:00:00 13.6 14 Sudeste 35 Este 0 -- -- 71
2021-02-20 12:00:00 12.9 12 Sudeste 38 Sudeste 0 -- -- 75
2021-02-20 11:00:00 12.1 15 Este 45 Este 0 -- -- 77
2021-02-20 10:00:00 12.1 16 Este 38 Sudeste 0 -- -- 77
2021-02-20 09:00:00 10.9 9 Este 30 Este 0 -- -- 83
2021-02-20 08:00:00 10.7 6 Nordeste 22 Nordeste 0 -- -- 84
2021-02-20 07:00:00 9.5 4 Norte 13 Norte 0 -- -- 88
2021-02-20 06:00:00 9.9 6 Este 26 Este 0 -- -- 87
2021-02-20 05:00:00 9.5 4 Norte 12 Este 0 -- -- 90
2021-02-20 04:00:00 10.2 4 Nordeste 13 Nordeste 0 -- -- 88
2021-02-20 03:00:00 10 3 Norte 15 Nordeste 0 -- -- 85
2021-02-20 02:00:00 10.6 3 Nordeste 14 Este 0 -- -- 82
2021-02-20 01:00:00 11.1 6 Sudeste 21 Sudeste 0 -- -- 81
2021-02-20 00:00:00 11.6 8 Sudeste 27 Sudoeste 0 -- -- 78
2021-02-19 23:00:00 11.9 7 Este 21 Sudoeste 0 -- -- 77
2021-02-19 22:00:00 12.4 5 Este 21 Sudoeste 0 -- -- 76
2021-02-19 21:00:00 12.9 7 Norte 37 Este 0 -- -- 75
2021-02-19 20:00:00 13.4 8 Sur 24 Sudoeste 0 -- -- 74
2021-02-19 19:00:00 13.6 5 Nordeste 19 Sudoeste 0 -- -- 74
2021-02-19 18:00:00 14.5 12 Sur 24 Sur 0 -- -- 69
2021-02-19 17:00:00 15.1 11 Sur 27 Sudoeste 0 -- -- 69
2021-02-19 16:00:00 14.1 10 Sudoeste 25 Sudoeste 0 -- -- 73
2021-02-19 15:00:00 14.4 11 Sudoeste 26 Sur 0 -- -- 71
2021-02-19 14:00:00 13.7 12 Sur 27 Sur 0 -- -- 72
2021-02-19 13:00:00 13.4 10 Sur 32 Sur 0 -- -- 74
2021-02-19 12:00:00 11.2 23 Sur 47 Sur 0 -- -- 81
2021-02-19 11:00:00 9.4 26 Sur 46 Sur 0 -- -- 88
2021-02-19 10:00:00 8.8 18 Sur 31 Sur 0 -- -- 90
2021-02-19 09:00:00 9.8 11 Sudeste 27 Sudeste 0 -- -- 87
2021-02-19 08:00:00 10.4 7 Sur 24 Sur 0 -- -- 86
2021-02-19 07:00:00 8.7 6 Sur 19 Sur 0 -- -- 90
2021-02-19 06:00:00 10.6 11 Sudeste 24 Sudeste 0 -- -- 86
2021-02-19 05:00:00 10.8 16 Sudeste 31 Sur 0 -- -- 91
2021-02-19 04:00:00 10.8 20 Sur 31 Sur 0 -- -- 92
2021-02-19 03:00:00 11 17 Sur 28 Sur 0 -- -- 89
2021-02-19 02:00:00 11.3 18 Sur 29 Sudeste 0 -- -- 83
2021-02-19 01:00:00 12 15 Sur 27 Sur 0 -- -- 73
2021-02-19 00:00:00 12.6 10 Sur 25 Sur 0 -- -- 68
2021-02-18 23:00:00 12 6 Sur 13 Sur 0 -- -- 72
2021-02-18 22:00:00 12.8 6 Sur 17 Sur 0 -- -- 69
2021-02-18 21:00:00 13.2 6 Sur 17 Sur 0 -- -- 71
2021-02-18 20:00:00 14.1 7 Sur 23 Sur 0 -- -- 68
2021-02-18 19:00:00 15.2 10 Sur 18 Sudeste 0 -- -- 65
2021-02-18 18:00:00 16.4 9 Sur 26 Sudoeste 0 -- -- 62
2021-02-18 17:00:00 16.8 10 Sur 23 Sur 0 -- -- 62
2021-02-18 16:00:00 16.8 10 Sudoeste 28 Sur 0 -- -- 63
2021-02-18 15:00:00 16.2 13 Sur 25 Sudoeste 0 -- -- 65
2021-02-18 14:00:00 15.3 12 Sur 22 Sur 0 -- -- 67
2021-02-18 13:00:00 13.6 7 Sur 23 Sur 0 -- -- 78
2021-02-18 12:00:00 12.1 6 Sudoeste 23 Sudoeste 0 -- -- 86
2021-02-18 11:00:00 10.5 10 Sudoeste 21 Sudoeste 0 -- -- 90
2021-02-18 10:00:00 8.7 6 Sudoeste 16 Sudeste 0 -- -- 97
2021-02-18 09:00:00 8 5 Sur 17 Sudoeste 0 -- -- 99
2021-02-18 08:00:00 7.5 0 Calma 3 Sur 0 -- -- 98
2021-02-18 07:00:00 6.7 0 Calma 6 Este 0 -- -- 96
2021-02-18 06:00:00 7.6 0 Calma 10 Sudeste 0 -- -- 95
2021-02-18 05:00:00 7.7 4 Sur 6 Sur 0 -- -- 95
2021-02-18 04:00:00 8.1 2 Sudoeste 6 Sudoeste 0 -- -- 94
2021-02-18 03:00:00 9.9 4 Sudoeste 15 Sudoeste 0 -- -- 92
2021-02-18 02:00:00 10.1 4 Oeste 16 Sudoeste 0 -- -- 89
2021-02-18 01:00:00 11.2 6 Oeste 21 Sur 0 -- -- 89
2021-02-18 00:00:00 12.7 11 Sudoeste 30 Sur 0 -- -- 83
2021-02-17 23:00:00 13.4 9 Sudoeste 36 Sur 0 -- -- 78
2021-02-17 22:00:00 14 12 Sur 25 Sur 0 -- -- 75
2021-02-17 21:00:00 14.1 12 Sur 26 Sur 0 -- -- 73
2021-02-17 20:00:00 14.1 6 Oeste 22 Sudoeste 0 -- -- 71
2021-02-17 19:00:00 16.1 9 Sudoeste 20 Sudoeste 0 -- -- 65
2021-02-17 18:00:00 17.5 4 Sur 16 Sudoeste 0 -- -- 62
2021-02-17 17:00:00 18.3 10 Sur 18 Sur 0 -- -- 57
2021-02-17 16:00:00 18.7 8 Sudoeste 17 Sudoeste 0 -- -- 57
2021-02-17 15:00:00 18.5 9 Sur 21 Sur 0 -- -- 61
2021-02-17 14:00:00 17.6 4 Este 13 Sudoeste 0 -- -- 65
2021-02-17 13:00:00 16 3 Norte 8 Nordeste 0 -- -- 78
2021-02-17 12:00:00 13.5 2 Nordeste 5 Nordeste 0 -- -- 85
2021-02-17 11:00:00 10.8 2 Norte 4 Nordeste 0 -- -- 93
2021-02-17 10:00:00 8.2 0 Calma 3 Noroeste 0 -- -- 96
2021-02-17 09:00:00 6.1 0 Calma 3 Norte 0 -- -- 97
2021-02-17 08:00:00 5.6 0 Calma 3 Noroeste 0 -- -- 96
2021-02-17 07:00:00 6 0 Calma 3 Sudeste 0 -- -- 97
2021-02-17 06:00:00 5.9 0 Calma 2 Sur 0 -- -- 95
2021-02-17 05:00:00 6.5 0 Calma 6 Noroeste 0 -- -- 95
2021-02-17 04:00:00 7.9 5 Sudoeste 8 Sudoeste 0 -- -- 94
2021-02-17 03:00:00 8.2 0 Calma 7 Sudoeste 0 -- -- 92
2021-02-17 02:00:00 9.1 3 Sudoeste 10 Sudoeste 0 -- -- 92
2021-02-17 01:00:00 9.5 0 Calma 5 Sur 0 -- -- 90
2021-02-17 00:00:00 10.9 0 Calma 19 Sur 0 -- -- 84
2021-02-16 23:00:00 13.2 11 Sur 17 Sur 0 -- -- 77
2021-02-16 22:00:00 13.5 10 Sur 20 Sur 0 -- -- 74
2021-02-16 21:00:00 13.6 13 Sur 22 Sur 0 -- -- 73
2021-02-16 20:00:00 13.7 13 Sur 18 Sur 0 -- -- 76
2021-02-16 19:00:00 14.1 9 Sur 16 Sur 0 -- -- 75
2021-02-16 18:00:00 15.5 10 Sur 19 Sur 0 -- -- 70
2021-02-16 17:00:00 17 9 Sur 19 Sur 0 -- -- 64
2021-02-16 16:00:00 17.3 7 Sudoeste 19 Sur 0 -- -- 65
2021-02-16 15:00:00 16.5 8 Sudoeste 17 Sudoeste 0 -- -- 66
2021-02-16 14:00:00 16.3 5 Sur 17 Sur 0 -- -- 64
2021-02-16 13:00:00 14.7 7 Sur 17 Sur 0 -- -- 68
2021-02-16 12:00:00 13.9 9 Sudoeste 19 Sur 0 -- -- 67
2021-02-16 11:00:00 10.9 3 Norte 6 Norte 0 -- -- 84
2021-02-16 10:00:00 7.3 0 Calma 3 Oeste 0 -- -- 92
2021-02-16 09:00:00 5.7 0 Calma 9 Sur 0 -- -- 93
2021-02-16 08:00:00 4.7 0 Calma 8 Sur 0 -- -- 93
2021-02-16 07:00:00 5.4 0 Calma 9 Sudeste 0 -- -- 91
2021-02-16 06:00:00 5.1 2 Oeste 4 Sudeste 0 -- -- 91
2021-02-16 05:00:00 6.3 2 Sur 9 Noroeste 0 -- -- 88
2021-02-16 04:00:00 7.2 3 Noroeste 17 Este 0 -- -- 88
2021-02-16 03:00:00 7.3 3 Sudoeste 9 Sudeste 0 -- -- 87
2021-02-16 02:00:00 8.1 0 Calma 6 Noroeste 0 -- -- 83
2021-02-16 01:00:00 11.3 4 Norte 35 Este 0 -- -- 73
2021-02-16 00:00:00 14.3 22 Este 36 Este 0 -- -- 59
2021-02-15 23:00:00 13.6 16 Este 37 Sudeste 0 -- -- 66
2021-02-15 22:00:00 13.7 16 Este 38 Este 0 -- -- 69
2021-02-15 21:00:00 14.8 12 Este 34 Este 0 -- -- 64
2021-02-15 20:00:00 15.6 15 Este 26 Este 0 -- -- 61
2021-02-15 19:00:00 15.7 10 Este 16 Este 0 -- -- 61
2021-02-15 18:00:00 17.6 14 Este 31 Este 0 -- -- 58
2021-02-15 17:00:00 18.3 18 Este 33 Este 0 -- -- 51
2021-02-15 16:00:00 18.3 15 Este 31 Este 0 -- -- 53
2021-02-15 15:00:00 18.1 17 Este 31 Este 0 -- -- 54
2021-02-15 14:00:00 17.4 16 Este 32 Este 0 -- -- 54
2021-02-15 13:00:00 16.7 14 Este 28 Este 0 -- -- 58
2021-02-15 12:00:00 15.4 12 Este 26 Este 0 -- -- 63
2021-02-15 11:00:00 12.5 15 Este 27 Este 0 -- -- 72
2021-02-15 10:00:00 9.3 4 Nordeste 14 Este 0 -- -- 85
2021-02-15 09:00:00 7.1 9 Este 15 Nordeste 0 -- -- 87
2021-02-15 08:00:00 7 6 Este 20 Este 0 -- -- 86
2021-02-15 07:00:00 4.9 0 Calma 3 Oeste 0 -- -- 94
2021-02-15 06:00:00 4.9 0 Calma 4 Noroeste 0 -- -- 94
2021-02-15 05:00:00 5.4 2 Noroeste 6 Noroeste 0 -- -- 96
2021-02-15 04:00:00 5.4 0 Calma 3 Sur 0 -- -- 94
2021-02-15 03:00:00 5.8 0 Calma 4 Noroeste 0 -- -- 92
2021-02-15 02:00:00 7.3 2 Noroeste 5 Oeste 0 -- -- 90
2021-02-15 01:00:00 7.6 0 Calma 5 Este 0 -- -- 89
2021-02-15 00:00:00 8.2 0 Calma 6 Oeste 0 -- -- 86
2021-02-14 23:00:00 11.2 2 Oeste 19 Este 0 -- -- 76
2021-02-14 22:00:00 11.6 8 Este 22 Sudeste 0 -- -- 76
2021-02-14 21:00:00 14.6 11 Este 19 Este 0 -- -- 63
2021-02-14 20:00:00 14.8 9 Este 18 Sudeste 0 -- -- 59
2021-02-14 19:00:00 15.1 12 Sudeste 16 Sudeste 0 -- -- 63
2021-02-14 18:00:00 18 6 Este 21 Este 0 -- -- 51
2021-02-14 17:00:00 19.6 8 Este 20 Sudeste 0 -- -- 46
2021-02-14 16:00:00 19.5 11 Este 24 Este 0 -- -- 47
2021-02-14 15:00:00 19.2 13 Este 26 Este 0 -- -- 50
2021-02-14 14:00:00 18.4 14 Este 25 Este 0 -- -- 50
2021-02-14 13:00:00 16.6 3 Este 9 Nordeste 0 -- -- 69
2021-02-14 12:00:00 13.5 5 Este 9 Nordeste 0 -- -- 78
2021-02-14 11:00:00 9.4 0 Calma 5 Noroeste 0 -- -- 90
2021-02-14 10:00:00 7.4 3 Noroeste 6 Noroeste 0 -- -- 93
2021-02-14 09:00:00 3.8 0 Calma 4 Noroeste 0 -- -- 98
2021-02-14 08:00:00 3.6 0 Calma 5 Noroeste 0 -- -- 96
2021-02-14 07:00:00 4.1 2 Este 5 Este 0 -- -- 97
2021-02-14 06:00:00 3.9 0 Calma 2 Sudeste 0 -- -- 95
2021-02-14 05:00:00 4.6 0 Calma 4 Oeste 0 -- -- 95
2021-02-14 04:00:00 4.7 0 Calma 2 Nordeste 0 -- -- 95
2021-02-14 03:00:00 5.1 0 Calma 3 Noroeste 0 -- -- 93
2021-02-14 02:00:00 6 0 Calma 5 Sur 0 -- -- 92
2021-02-14 01:00:00 7.2 0 Calma 6 Sur 0 -- -- 88
2021-02-14 00:00:00 7.8 4 Sur 10 Este 0 -- -- 87
2021-02-13 23:00:00 9.3 0 Calma 8 Sudoeste 0 -- -- 81
2021-02-13 22:00:00 9.2 3 Sudoeste 8 Sur 0 -- -- 82
2021-02-13 21:00:00 9.1 3 Sudeste 5 Sur 0 -- -- 82
2021-02-13 20:00:00 10.4 0 Calma 9 Sur 0 -- -- 79
2021-02-13 19:00:00 11.4 6 Sur 9 Sur 0 -- -- 74
2021-02-13 18:00:00 17.2 0 Calma 6 Este 0 -- -- 59
2021-02-13 17:00:00 17.3 2 Este 8 Norte 0 -- -- 52
2021-02-13 16:00:00 17.1 3 Norte 13 Oeste 0 -- -- 52
2021-02-13 15:00:00 16.5 2 Este 10 Sudoeste 0 -- -- 59
2021-02-13 14:00:00 15.2 5 Noroeste 11 Oeste 0 -- -- 68
2021-02-13 13:00:00 13.9 7 Noroeste 11 Noroeste 0 -- -- 75
2021-02-13 08:00:00 -- -- -- -- -- -- -- -- --
2021-02-13 07:00:00 -- -- -- -- -- -- -- -- --
2021-02-13 06:00:00 -- -- -- -- -- -- -- -- --
2021-02-13 05:00:00 9 7 Sudoeste 14 Oeste 0 -- -- 90
2021-02-13 04:00:00 6.6 2 Oeste 8 Sur 0 -- -- 93
2021-02-13 03:00:00 7.3 0 Calma 4 Oeste 0 -- -- 90
2021-02-13 02:00:00 8.6 0 Calma 13 Sudoeste 0 -- -- 86
2021-02-13 01:00:00 11 9 Sudoeste 16 Sudoeste 0 -- -- 80
2021-02-13 00:00:00 11.3 12 Sudoeste 19 Sudoeste 0 -- -- 80
2021-02-12 23:00:00 12.1 10 Sudoeste 18 Sudoeste 0 -- -- 76
2021-02-12 22:00:00 12 10 Sudoeste 15 Sudoeste 0 -- -- 75
2021-02-12 21:00:00 11.8 10 Sudoeste 15 Sudoeste 0 -- -- 74
2021-02-12 20:00:00 12.2 10 Sudoeste 16 Sudoeste 0 -- -- 74
2021-02-12 19:00:00 13 11 Sudoeste 17 Oeste 0 -- -- 72
2021-02-12 18:00:00 15.3 10 Oeste 20 Oeste 0 -- -- 64
2021-02-12 17:00:00 15.9 7 Oeste 25 Noroeste 0 -- -- 63
2021-02-12 16:00:00 16.4 12 Noroeste 24 Noroeste 0 -- -- 62
2021-02-12 15:00:00 15.7 12 Noroeste 24 Oeste 0 -- -- 66
2021-02-12 14:00:00 15 14 Noroeste 25 Noroeste 0 -- -- 68
2021-02-12 13:00:00 14.2 16 Noroeste 30 Noroeste 0 -- -- 77
2021-02-12 12:00:00 13.4 18 Oeste 30 Oeste 0 -- -- 80
2021-02-12 11:00:00 12.6 13 Oeste 24 Sudoeste 0 -- -- 83
2021-02-12 10:00:00 10.9 13 Oeste 24 Oeste 0 -- -- 90
2021-02-12 09:00:00 9.8 12 Sudoeste 23 Sudoeste 0 -- -- 93
2021-02-12 08:00:00 9.7 12 Sudoeste 23 Sudoeste 0 -- -- 91
2021-02-12 07:00:00 10.3 13 Sudoeste 27 Oeste 0 -- -- 91
2021-02-12 06:00:00 10.5 17 Sudoeste 29 Oeste 0 -- -- 92
2021-02-12 05:00:00 11 14 Sudoeste 28 Oeste 0 -- -- 91
2021-02-12 04:00:00 12.1 19 Oeste 35 Oeste 0.6 -- -- 92
2021-02-12 03:00:00 12.8 16 Sudoeste 26 Sudoeste 0 -- -- 94
2021-02-12 02:00:00 12.8 15 Sur 28 Sudoeste 1.2 -- -- 96
2021-02-12 01:00:00 12.9 11 Sudoeste 30 Sur 0.8 -- -- 96
2021-02-12 00:00:00 13 14 Sur 33 Sur 0 -- -- 95
2021-02-11 23:00:00 12.8 10 Sudoeste 24 Sudoeste 0.2 -- -- 95
2021-02-11 22:00:00 13.4 12 Sudoeste 31 Sur 0.4 -- -- 95
2021-02-11 21:00:00 13.4 17 Sur 32 Sur 0 -- -- 92
2021-02-11 20:00:00 13.4 16 Sur 36 Sudeste 0 -- -- 91
2021-02-11 19:00:00 14.1 17 Sur 28 Sudeste 0 -- -- 90
2021-02-11 18:00:00 14.5 9 Sur 22 Sur 0 -- -- 90
2021-02-11 17:00:00 -- -- -- -- -- -- -- -- --
2021-02-11 16:00:00 -- -- -- -- -- -- -- -- --
2021-02-11 15:00:00 -- -- -- -- -- -- -- -- --
2021-02-11 14:00:00 -- -- -- -- -- -- -- -- --
2021-02-11 13:00:00 -- -- -- -- -- -- -- -- --
2021-02-11 12:00:00 -- -- -- -- -- -- -- -- --
2021-02-11 11:00:00 -- -- -- -- -- -- -- -- --
2021-02-11 10:00:00 -- -- -- -- -- -- -- -- --
2021-02-11 09:00:00 -- -- -- -- -- -- -- -- --
2021-02-11 08:00:00 -- -- -- -- -- -- -- -- --
2021-02-11 07:00:00 -- -- -- -- -- -- -- -- --
2021-02-11 06:00:00 -- -- -- -- -- -- -- -- --
2021-02-11 05:00:00 -- -- -- -- -- -- -- -- --
2021-02-11 04:00:00 -- -- -- -- -- -- -- -- --
2021-02-11 03:00:00 -- -- -- -- -- -- -- -- --
2021-02-11 02:00:00 -- -- -- -- -- -- -- -- --
2021-02-11 01:00:00 -- -- -- -- -- -- -- -- --
2021-02-11 00:00:00 -- -- -- -- -- -- -- -- --
2021-02-10 23:00:00 -- -- -- -- -- -- -- -- --
2021-02-10 22:00:00 -- -- -- -- -- -- -- -- --
2021-02-10 21:00:00 -- -- -- -- -- -- -- -- --
2021-02-10 20:00:00 -- -- -- -- -- -- -- -- --
2021-02-10 19:00:00 -- -- -- -- -- -- -- -- --
2021-02-10 18:00:00 -- -- -- -- -- -- -- -- --
2021-02-10 17:00:00 -- -- -- -- -- -- -- -- --
2021-02-10 16:00:00 -- -- -- -- -- -- -- -- --
2021-02-10 15:00:00 -- -- -- -- -- -- -- -- --
2021-02-10 14:00:00 -- -- -- -- -- -- -- -- --
2021-02-10 13:00:00 -- -- -- -- -- -- -- -- --
2021-02-10 12:00:00 -- -- -- -- -- -- -- -- --
2021-02-10 11:00:00 -- -- -- -- -- -- -- -- --
2021-02-10 10:00:00 -- -- -- -- -- -- -- -- --
2021-02-10 09:00:00 -- -- -- -- -- -- -- -- --
2021-02-10 08:00:00 -- -- -- -- -- -- -- -- --
2021-02-10 07:00:00 -- -- -- -- -- -- -- -- --
2021-02-10 06:00:00 -- -- -- -- -- -- -- -- --
2021-02-10 05:00:00 -- -- -- -- -- -- -- -- --
2021-02-10 04:00:00 -- -- -- -- -- -- -- -- --
2021-02-10 03:00:00 -- -- -- -- -- -- -- -- --
2021-02-10 02:00:00 -- -- -- -- -- -- -- -- --
2021-02-10 01:00:00 -- -- -- -- -- -- -- -- --
2021-02-10 00:00:00 -- -- -- -- -- -- -- -- --
2021-02-09 23:00:00 -- -- -- -- -- -- -- -- --
2021-02-09 22:00:00 -- -- -- -- -- -- -- -- --
2021-02-09 21:00:00 -- -- -- -- -- -- -- -- --
2021-02-09 20:00:00 -- -- -- -- -- -- -- -- --
2021-02-09 19:00:00 -- -- -- -- -- -- -- -- --
2021-02-09 18:00:00 -- -- -- -- -- -- -- -- --
2021-02-09 17:00:00 -- -- -- -- -- -- -- -- --
2021-02-09 16:00:00 -- -- -- -- -- -- -- -- --
2021-02-09 15:00:00 -- -- -- -- -- -- -- -- --
2021-02-09 14:00:00 -- -- -- -- -- -- -- -- --
2021-02-09 13:00:00 -- -- -- -- -- -- -- -- --
2021-02-09 12:00:00 -- -- -- -- -- -- -- -- --
2021-02-09 11:00:00 -- -- -- -- -- -- -- -- --
2021-02-09 10:00:00 -- -- -- -- -- -- -- -- --
2021-02-09 09:00:00 -- -- -- -- -- -- -- -- --
2021-02-09 08:00:00 -- -- -- -- -- -- -- -- --
2021-02-09 07:00:00 -- -- -- -- -- -- -- -- --
2021-02-09 06:00:00 -- -- -- -- -- -- -- -- --
2021-02-09 05:00:00 -- -- -- -- -- -- -- -- --
2021-02-09 04:00:00 -- -- -- -- -- -- -- -- --
2021-02-09 03:00:00 -- -- -- -- -- -- -- -- --
2021-02-09 02:00:00 -- -- -- -- -- -- -- -- --
2021-02-09 01:00:00 -- -- -- -- -- -- -- -- --
2021-02-09 00:00:00 -- -- -- -- -- -- -- -- --
2021-02-08 23:00:00 -- -- -- -- -- -- -- -- --
2021-02-08 22:00:00 -- -- -- -- -- -- -- -- --
2021-02-08 21:00:00 -- -- -- -- -- -- -- -- --
2021-02-08 20:00:00 -- -- -- -- -- -- -- -- --
2021-02-08 19:00:00 -- -- -- -- -- -- -- -- --
2021-02-08 18:00:00 -- -- -- -- -- -- -- -- --
2021-02-08 17:00:00 -- -- -- -- -- -- -- -- --
2021-02-08 16:00:00 -- -- -- -- -- -- -- -- --
2021-02-08 15:00:00 -- -- -- -- -- -- -- -- --
2021-02-08 14:00:00 -- -- -- -- -- -- -- -- --
2021-02-08 13:00:00 -- -- -- -- -- -- -- -- --
2021-02-08 12:00:00 -- -- -- -- -- -- -- -- --
2021-02-08 11:00:00 -- -- -- -- -- -- -- -- --
2021-02-08 10:00:00 -- -- -- -- -- -- -- -- --
2021-02-08 09:00:00 -- -- -- -- -- -- -- -- --
2021-02-08 08:00:00 -- -- -- -- -- -- -- -- --
2021-02-08 07:00:00 -- -- -- -- -- -- -- -- --
2021-02-08 06:00:00 -- -- -- -- -- -- -- -- --
2021-02-08 05:00:00 -- -- -- -- -- -- -- -- --
2021-02-08 04:00:00 -- -- -- -- -- -- -- -- --
2021-02-08 03:00:00 -- -- -- -- -- -- -- -- --
2021-02-08 02:00:00 -- -- -- -- -- -- -- -- --
2021-02-08 01:00:00 -- -- -- -- -- -- -- -- --
2021-02-08 00:00:00 -- -- -- -- -- -- -- -- --
2021-02-07 23:00:00 -- -- -- -- -- -- -- -- --
2021-02-07 22:00:00 -- -- -- -- -- -- -- -- --
2021-02-07 21:00:00 -- -- -- -- -- -- -- -- --
2021-02-07 20:00:00 -- -- -- -- -- -- -- -- --
2021-02-07 19:00:00 -- -- -- -- -- -- -- -- --
2021-02-07 18:00:00 -- -- -- -- -- -- -- -- --
2021-02-07 17:00:00 -- -- -- -- -- -- -- -- --
2021-02-07 16:00:00 -- -- -- -- -- -- -- -- --
2021-02-07 15:00:00 -- -- -- -- -- -- -- -- --
2021-02-07 14:00:00 -- -- -- -- -- -- -- -- --
2021-02-07 13:00:00 -- -- -- -- -- -- -- -- --
2021-02-07 12:00:00 -- -- -- -- -- -- -- -- --
2021-02-07 11:00:00 -- -- -- -- -- -- -- -- --
2021-02-07 10:00:00 -- -- -- -- -- -- -- -- --
2021-02-07 09:00:00 -- -- -- -- -- -- -- -- --
2021-02-07 08:00:00 -- -- -- -- -- -- -- -- --
2021-02-07 07:00:00 -- -- -- -- -- -- -- -- --
2021-02-07 06:00:00 -- -- -- -- -- -- -- -- --
2021-02-07 05:00:00 -- -- -- -- -- -- -- -- --
2021-02-07 04:00:00 -- -- -- -- -- -- -- -- --
2021-02-07 03:00:00 -- -- -- -- -- -- -- -- --
2021-02-07 02:00:00 -- -- -- -- -- -- -- -- --
2021-02-07 01:00:00 -- -- -- -- -- -- -- -- --
2021-02-07 00:00:00 -- -- -- -- -- -- -- -- --
2021-02-06 23:00:00 -- -- -- -- -- -- -- -- --
2021-02-06 22:00:00 -- -- -- -- -- -- -- -- --
2021-02-06 21:00:00 -- -- -- -- -- -- -- -- --
2021-02-06 20:00:00 -- -- -- -- -- -- -- -- --
2021-02-06 19:00:00 -- -- -- -- -- -- -- -- --
2021-02-06 18:00:00 -- -- -- -- -- -- -- -- --
2021-02-06 17:00:00 -- -- -- -- -- -- -- -- --
2021-02-06 16:00:00 -- -- -- -- -- -- -- -- --
2021-02-06 15:00:00 -- -- -- -- -- -- -- -- --
2021-02-06 14:00:00 -- -- -- -- -- -- -- -- --
2021-02-06 13:00:00 -- -- -- -- -- -- -- -- --
2021-02-06 12:00:00 -- -- -- -- -- -- -- -- --
2021-02-06 11:00:00 -- -- -- -- -- -- -- -- --
2021-02-06 10:00:00 -- -- -- -- -- -- -- -- --
2021-02-06 09:00:00 8.6 10 Oeste 21 Oeste 0.2 -- -- 99
2021-02-06 08:00:00 9 7 Oeste 12 Oeste 0.2 -- -- 98
2021-02-06 07:00:00 9.1 6 Sur 19 Sur 0 -- -- 98
2021-02-06 06:00:00 9 8 Sur 25 Sudoeste 0 -- -- 97
2021-02-06 05:00:00 9.1 11 Sur 32 Sur 0.2 -- -- 95
2021-02-06 04:00:00 9.4 7 Este 25 Este 0 -- -- 94
2021-02-06 03:00:00 9.4 3 Noroeste 21 Este 0 -- -- 94
2021-02-06 02:00:00 9.4 6 Sudeste 24 Sudoeste 0 -- -- 93
2021-02-06 01:00:00 9.6 6 Sudeste 15 Sudeste 0 -- -- 95
2021-02-06 00:00:00 9.5 8 Este 17 Nordeste 0 -- -- 97
2021-02-05 23:00:00 9.4 9 Este 18 Este 0 -- -- 98
2021-02-05 22:00:00 9.4 13 Este 19 Este 0.8 -- -- 98
2021-02-05 21:00:00 9.5 9 Este 18 Este 0.4 -- -- 98
2021-02-05 20:00:00 9.6 10 Este 20 Este 1.8 -- -- 98
2021-02-05 19:00:00 10 4 Nordeste 12 Este 0.4 -- -- 98
2021-02-05 18:00:00 10.1 5 Este 13 Este 2.6 -- -- 98
2021-02-05 17:00:00 10.4 3 Este 9 Este 1 -- -- 97
2021-02-05 16:00:00 10.4 3 Este 9 Este 1.2 -- -- 98
2021-02-05 15:00:00 10.4 3 Este 12 Este 1.6 -- -- 96
2021-02-05 14:00:00 10.5 5 Sur 22 Sur 1.4 -- -- 93
2021-02-05 13:00:00 10.5 11 Sur 23 Sudoeste -- -- -- 93
2021-02-05 12:00:00 10.9 12 Sur 31 Sudeste -- -- -- 90
2021-02-05 11:00:00 10.9 17 Sur 40 Sur -- -- -- 90
2021-02-05 10:00:00 10.8 13 Sudeste 42 Sur -- -- -- 90
2021-02-05 09:00:00 9.5 7 Sur 30 Sudoeste -- -- -- 100
2021-02-05 08:00:00 8.9 6 Este 18 Oeste -- -- -- 100
2021-02-05 07:00:00 8.8 6 Oeste 21 Oeste -- -- -- 99
2021-02-05 06:00:00 8.8 4 Oeste 13 Oeste -- -- -- 99
2021-02-05 05:00:00 8.7 7 Oeste 12 Oeste 0 -- -- 99
2021-02-05 04:00:00 8.9 4 Noroeste 10 Oeste 0 -- -- 98
2021-02-05 03:00:00 9.1 5 Este 8 Este 0 -- -- 98
2021-02-05 02:00:00 9 0 Calma 14 Oeste 0 -- -- 98
2021-02-05 01:00:00 8.9 7 Este 10 Este 0 -- -- 99
2021-02-05 00:00:00 9.2 4 Noroeste 17 Oeste 0 -- -- 98
2021-02-04 23:00:00 9.4 9 Este 17 Este 0 -- -- 97
2021-02-04 22:00:00 9.4 5 Este 8 Este 0 -- -- 98
2021-02-04 21:00:00 9.6 3 Noroeste 13 Este 0 -- -- 97
2021-02-04 20:00:00 9.6 5 Este 10 Sudoeste 0 -- -- 97
2021-02-04 19:00:00 10 6 Oeste 22 Este 0 -- -- 94
2021-02-04 18:00:00 10.5 14 Este 26 Este 0 -- -- 94
2021-02-04 17:00:00 10.2 16 Sudeste 26 Este 0 -- -- 93
2021-02-04 16:00:00 10.1 11 Este 18 Este 0 -- -- 93
2021-02-04 15:00:00 10.5 5 Este 13 Este 0 -- -- 95
2021-02-04 14:00:00 10.1 8 Este 13 Este 0 -- -- 97
2021-02-04 13:00:00 9.6 0 Calma 9 Noroeste 0 -- -- 99
2021-02-04 12:00:00 9.5 5 Noroeste 9 Noroeste 0 -- -- 99
2021-02-04 11:00:00 9.6 0 Calma 8 Este 2 -- -- 99
2021-02-04 10:00:00 9.5 3 Este 10 Oeste 3 -- -- 98
2021-02-04 09:00:00 9.6 8 Sudeste 19 Sudeste 2.6 -- -- 96
2021-02-04 08:00:00 9.7 7 Sudeste 18 Sudeste 0.8 -- -- 96
2021-02-04 07:00:00 9.8 7 Sudeste 18 Sur 0 -- -- 96
2021-02-04 06:00:00 10 13 Sudeste 23 Sudeste 0.6 -- -- 95
2021-02-04 05:00:00 10.2 12 Sudeste 20 Sudeste 0.2 -- -- 94
2021-02-04 04:00:00 10.5 12 Sur 23 Sur 0 -- -- 94
2021-02-04 03:00:00 10.9 8 Sur 16 Sudeste 0 -- -- 95
2021-02-04 02:00:00 11.1 9 Sur 18 Sur 0.2 -- -- 96
2021-02-04 01:00:00 11.6 9 Sur 24 Sur 0 -- -- 94
2021-02-04 00:00:00 11.7 12 Sur 24 Sur 0 -- -- 94
2021-02-03 23:00:00 11.9 13 Sur 23 Sur 0 -- -- 95
2021-02-03 22:00:00 11.9 10 Sur 33 Sudeste 0 -- -- 95
2021-02-03 21:00:00 11.9 15 Sur 29 Sur 0 -- -- 95
2021-02-03 20:00:00 11.9 15 Sur 32 Sur 0 -- -- 96
2021-02-03 19:00:00 11.9 19 Sur 33 Sur 0.4 -- -- 94
2021-02-03 18:00:00 12.2 13 Sur 25 Sudoeste 1.6 -- -- 93
2021-02-03 17:00:00 13 10 Oeste 32 Sur 1.4 -- -- 96
2021-02-03 16:00:00 13 19 Sur 33 Sur 0 -- -- 93
2021-02-03 15:00:00 12.7 17 Sur 36 Sur 0 -- -- 94
2021-02-03 14:00:00 12.6 23 Sur 40 Sur 0.2 -- -- 94
2021-02-03 13:00:00 12.2 18 Sur 35 Sudeste 0.4 -- -- 94
2021-02-03 12:00:00 11.7 15 Sur 36 Sur 0.2 -- -- 95
2021-02-03 11:00:00 11.5 15 Sur 37 Sur 0.2 -- -- 95
2021-02-03 10:00:00 11 19 Sur 35 Sudeste 0.6 -- -- 95
2021-02-03 09:00:00 10.8 22 Sur 39 Sudeste 0.4 -- -- 94
2021-02-03 08:00:00 10.7 16 Sur 37 Sur 0.2 -- -- 94
2021-02-03 07:00:00 10.5 21 Sur 43 Sur 0.4 -- -- 94
2021-02-03 06:00:00 10.7 19 Sur 41 Sur 0 -- -- 92
2021-02-03 05:00:00 11.6 22 Sur 39 Sur 0 -- -- 84
2021-02-03 04:00:00 11.9 18 Sur 41 Sur 0 -- -- 80
2021-02-03 03:00:00 12 21 Sur 41 Sur 0 -- -- 79
2021-02-03 02:00:00 11.9 13 Sur 44 Sur 0 -- -- 80
2021-02-03 01:00:00 12.2 31 Sur 44 Sur 0 -- -- 77
2021-02-03 00:00:00 11.9 4 Sudeste 18 Sur 0 -- -- 83